sensor_id;sensor_type;location;lat;lon;timestamp;pressure;altitude;pressure_sealevel;temperature
33267;BMP180;19638;49.080;11.896;2023-05-29T00:01:28;96432.00;;;12.60
33267;BMP180;19638;49.080;11.896;2023-05-29T00:05:34;96430.00;;;12.60
33267;BMP180;19638;49.080;11.896;2023-05-29T00:09:40;96438.00;;;12.50
33267;BMP180;19638;49.080;11.896;2023-05-29T00:13:43;96440.00;;;12.70
33267;BMP180;19638;49.080;11.896;2023-05-29T00:17:46;96440.00;;;12.90
33267;BMP180;19638;49.080;11.896;2023-05-29T00:21:54;96449.00;;;13.20
33267;BMP180;19638;49.080;11.896;2023-05-29T00:26:00;96448.00;;;13.30
33267;BMP180;19638;49.080;11.896;2023-05-29T00:30:08;96441.00;;;13.40
33267;BMP180;19638;49.080;11.896;2023-05-29T00:34:11;96440.00;;;13.40
33267;BMP180;19638;49.080;11.896;2023-05-29T00:38:16;96439.00;;;13.40
33267;BMP180;19638;49.080;11.896;2023-05-29T00:42:19;96440.00;;;13.30
33267;BMP180;19638;49.080;11.896;2023-05-29T00:46:23;96434.00;;;13.30
33267;BMP180;19638;49.080;11.896;2023-05-29T00:50:28;96434.00;;;13.30
33267;BMP180;19638;49.080;11.896;2023-05-29T00:54:33;96444.00;;;13.30
33267;BMP180;19638;49.080;11.896;2023-05-29T00:58:36;96443.00;;;13.30
33267;BMP180;19638;49.080;11.896;2023-05-29T01:02:40;96444.00;;;13.40
33267;BMP180;19638;49.080;11.896;2023-05-29T01:06:48;96449.00;;;13.30
33267;BMP180;19638;49.080;11.896;2023-05-29T01:10:56;96446.00;;;13.10
33267;BMP180;19638;49.080;11.896;2023-05-29T01:15:07;96447.00;;;12.70
33267;BMP180;19638;49.080;11.896;2023-05-29T01:19:26;96447.00;;;12.40
33267;BMP180;19638;49.080;11.896;2023-05-29T01:23:45;96438.00;;;12.00
33267;BMP180;19638;49.080;11.896;2023-05-29T01:27:55;96431.00;;;11.70
33267;BMP180;19638;49.080;11.896;2023-05-29T01:32:04;96430.00;;;11.60
33267;BMP180;19638;49.080;11.896;2023-05-29T01:36:10;96425.00;;;11.80
33267;BMP180;19638;49.080;11.896;2023-05-29T01:40:14;96426.00;;;11.80
33267;BMP180;19638;49.080;11.896;2023-05-29T01:44:23;96417.00;;;11.70
33267;BMP180;19638;49.080;11.896;2023-05-29T01:48:27;96420.00;;;11.80
33267;BMP180;19638;49.080;11.896;2023-05-29T01:52:32;96419.00;;;12.00
33267;BMP180;19638;49.080;11.896;2023-05-29T01:56:36;96418.00;;;12.10
33267;BMP180;19638;49.080;11.896;2023-05-29T02:00:47;96412.00;;;12.30
33267;BMP180;19638;49.080;11.896;2023-05-29T02:04:59;96413.00;;;12.30
33267;BMP180;19638;49.080;11.896;2023-05-29T02:09:07;96404.00;;;12.30
33267;BMP180;19638;49.080;11.896;2023-05-29T02:13:13;96405.00;;;12.50
33267;BMP180;19638;49.080;11.896;2023-05-29T02:17:18;96400.00;;;12.60
33267;BMP180;19638;49.080;11.896;2023-05-29T02:21:21;96393.00;;;12.60
33267;BMP180;19638;49.080;11.896;2023-05-29T02:25:28;96396.00;;;12.60
33267;BMP180;19638;49.080;11.896;2023-05-29T02:29:33;96396.00;;;12.60
33267;BMP180;19638;49.080;11.896;2023-05-29T02:33:37;96390.00;;;12.70
33267;BMP180;19638;49.080;11.896;2023-05-29T02:37:41;96394.00;;;12.70
33267;BMP180;19638;49.080;11.896;2023-05-29T02:41:44;96399.00;;;12.50
33267;BMP180;19638;49.080;11.896;2023-05-29T02:45:47;96394.00;;;12.10
33267;BMP180;19638;49.080;11.896;2023-05-29T02:49:52;96396.00;;;11.70
33267;BMP180;19638;49.080;11.896;2023-05-29T02:53:55;96395.00;;;11.40
33267;BMP180;19638;49.080;11.896;2023-05-29T02:58:02;96389.00;;;11.20
33267;BMP180;19638;49.080;11.896;2023-05-29T03:07:06;96387.00;;;11.20
33267;BMP180;19638;49.080;11.896;2023-05-29T03:11:12;96386.00;;;11.10
33267;BMP180;19638;49.080;11.896;2023-05-29T03:15:16;96386.00;;;11.00
33267;BMP180;19638;49.080;11.896;2023-05-29T03:19:27;96378.00;;;10.80
33267;BMP180;19638;49.080;11.896;2023-05-29T03:23:32;96376.00;;;10.60
33267;BMP180;19638;49.080;11.896;2023-05-29T03:27:37;96384.00;;;10.40
33267;BMP180;19638;49.080;11.896;2023-05-29T03:31:41;96388.00;;;10.30
33267;BMP180;19638;49.080;11.896;2023-05-29T03:35:46;96384.00;;;10.20
33267;BMP180;19638;49.080;11.896;2023-05-29T03:39:50;96392.00;;;10.10
33267;BMP180;19638;49.080;11.896;2023-05-29T03:43:56;96391.00;;;10.00
33267;BMP180;19638;49.080;11.896;2023-05-29T03:48:02;96395.00;;;10.00
33267;BMP180;19638;49.080;11.896;2023-05-29T03:52:05;96382.00;;;10.00
33267;BMP180;19638;49.080;11.896;2023-05-29T03:56:10;96385.00;;;10.20
33267;BMP180;19638;49.080;11.896;2023-05-29T04:00:13;96388.00;;;10.50
33267;BMP180;19638;49.080;11.896;2023-05-29T04:04:20;96390.00;;;11.00
33267;BMP180;19638;49.080;11.896;2023-05-29T04:08:23;96398.00;;;11.60
33267;BMP180;19638;49.080;11.896;2023-05-29T04:12:28;96403.00;;;12.10
33267;BMP180;19638;49.080;11.896;2023-05-29T04:16:31;96408.00;;;12.50
33267;BMP180;19638;49.080;11.896;2023-05-29T04:20:38;96413.00;;;13.00
33267;BMP180;19638;49.080;11.896;2023-05-29T04:24:44;96417.00;;;13.30
33267;BMP180;19638;49.080;11.896;2023-05-29T04:28:54;96417.00;;;13.70
33267;BMP180;19638;49.080;11.896;2023-05-29T04:32:59;96425.00;;;14.00
33267;BMP180;19638;49.080;11.896;2023-05-29T04:37:08;96430.00;;;14.30
33267;BMP180;19638;49.080;11.896;2023-05-29T04:41:15;96433.00;;;14.70
33267;BMP180;19638;49.080;11.896;2023-05-29T04:45:23;96441.00;;;15.00
33267;BMP180;19638;49.080;11.896;2023-05-29T04:49:27;96439.00;;;15.30
33267;BMP180;19638;49.080;11.896;2023-05-29T04:53:32;96449.00;;;15.50
33267;BMP180;19638;49.080;11.896;2023-05-29T04:57:39;96449.00;;;15.80
33267;BMP180;19638;49.080;11.896;2023-05-29T05:01:49;96449.00;;;16.10
33267;BMP180;19638;49.080;11.896;2023-05-29T05:05:53;96459.00;;;16.30
33267;BMP180;19638;49.080;11.896;2023-05-29T05:09:56;96468.00;;;16.50
33267;BMP180;19638;49.080;11.896;2023-05-29T05:13:59;96468.00;;;16.70
33267;BMP180;19638;49.080;11.896;2023-05-29T05:18:04;96476.00;;;16.80
33267;BMP180;19638;49.080;11.896;2023-05-29T05:22:07;96489.00;;;16.80
33267;BMP180;19638;49.080;11.896;2023-05-29T05:26:19;96486.00;;;16.80
33267;BMP180;19638;49.080;11.896;2023-05-29T05:30:23;96488.00;;;16.80
33267;BMP180;19638;49.080;11.896;2023-05-29T05:34:30;96488.00;;;16.80
33267;BMP180;19638;49.080;11.896;2023-05-29T05:38:33;96475.00;;;16.70
33267;BMP180;19638;49.080;11.896;2023-05-29T05:42:38;96494.00;;;16.80
33267;BMP180;19638;49.080;11.896;2023-05-29T05:46:43;96489.00;;;16.90
33267;BMP180;19638;49.080;11.896;2023-05-29T05:50:49;96490.00;;;17.00
33267;BMP180;19638;49.080;11.896;2023-05-29T05:54:52;96502.00;;;17.30
33267;BMP180;19638;49.080;11.896;2023-05-29T05:58:56;96504.00;;;17.50
33267;BMP180;19638;49.080;11.896;2023-05-29T06:03:01;96506.00;;;17.70
33267;BMP180;19638;49.080;11.896;2023-05-29T06:07:08;96510.00;;;17.90
33267;BMP180;19638;49.080;11.896;2023-05-29T06:11:11;96519.00;;;18.20
33267;BMP180;19638;49.080;11.896;2023-05-29T06:15:17;96517.00;;;18.20
33267;BMP180;19638;49.080;11.896;2023-05-29T06:19:25;96514.00;;;18.10
33267;BMP180;19638;49.080;11.896;2023-05-29T06:23:35;96511.00;;;18.10
33267;BMP180;19638;49.080;11.896;2023-05-29T06:27:39;96526.00;;;18.50
33267;BMP180;19638;49.080;11.896;2023-05-29T06:31:42;96524.00;;;18.90
33267;BMP180;19638;49.080;11.896;2023-05-29T06:35:51;96531.00;;;19.20
33267;BMP180;19638;49.080;11.896;2023-05-29T06:39:55;96540.00;;;19.60
33267;BMP180;19638;49.080;11.896;2023-05-29T06:43:59;96538.00;;;19.80
33267;BMP180;19638;49.080;11.896;2023-05-29T06:48:02;96531.00;;;20.00
33267;BMP180;19638;49.080;11.896;2023-05-29T06:52:05;96544.00;;;20.10
33267;BMP180;19638;49.080;11.896;2023-05-29T06:56:14;96545.00;;;20.30
33267;BMP180;19638;49.080;11.896;2023-05-29T07:00:18;96540.00;;;20.60
33267;BMP180;19638;49.080;11.896;2023-05-29T07:04:22;96552.00;;;20.70
33267;BMP180;19638;49.080;11.896;2023-05-29T07:08:27;96558.00;;;20.90
33267;BMP180;19638;49.080;11.896;2023-05-29T07:12:31;96552.00;;;21.10
33267;BMP180;19638;49.080;11.896;2023-05-29T07:16:51;96554.00;;;21.30
33267;BMP180;19638;49.080;11.896;2023-05-29T07:21:00;96560.00;;;21.50
33267;BMP180;19638;49.080;11.896;2023-05-29T07:25:04;96562.00;;;21.60
33267;BMP180;19638;49.080;11.896;2023-05-29T07:29:09;96558.00;;;21.70
33267;BMP180;19638;49.080;11.896;2023-05-29T07:33:12;96560.00;;;21.80
33267;BMP180;19638;49.080;11.896;2023-05-29T07:37:15;96561.00;;;22.20
33267;BMP180;19638;49.080;11.896;2023-05-29T07:41:21;96560.00;;;22.20
33267;BMP180;19638;49.080;11.896;2023-05-29T07:45:31;96572.00;;;22.30
33267;BMP180;19638;49.080;11.896;2023-05-29T07:49:34;96560.00;;;22.40
33267;BMP180;19638;49.080;11.896;2023-05-29T07:53:38;96569.00;;;22.80
33267;BMP180;19638;49.080;11.896;2023-05-29T07:57:41;96561.00;;;23.50
33267;BMP180;19638;49.080;11.896;2023-05-29T08:01:57;96562.00;;;23.80
33267;BMP180;19638;49.080;11.896;2023-05-29T08:06:05;96561.00;;;24.10
33267;BMP180;19638;49.080;11.896;2023-05-29T08:10:13;96568.00;;;24.20
33267;BMP180;19638;49.080;11.896;2023-05-29T08:14:17;96562.00;;;24.50
33267;BMP180;19638;49.080;11.896;2023-05-29T08:18:21;96563.00;;;24.90
33267;BMP180;19638;49.080;11.896;2023-05-29T08:22:28;96569.00;;;25.00
33267;BMP180;19638;49.080;11.896;2023-05-29T08:26:34;96565.00;;;25.20
33267;BMP180;19638;49.080;11.896;2023-05-29T08:30:40;96564.00;;;25.30
33267;BMP180;19638;49.080;11.896;2023-05-29T08:34:47;96557.00;;;25.40
33267;BMP180;19638;49.080;11.896;2023-05-29T08:38:51;96562.00;;;25.30
33267;BMP180;19638;49.080;11.896;2023-05-29T08:43:02;96562.00;;;25.40
33267;BMP180;19638;49.080;11.896;2023-05-29T08:47:07;96571.00;;;25.70
33267;BMP180;19638;49.080;11.896;2023-05-29T08:51:19;96558.00;;;26.30
33267;BMP180;19638;49.080;11.896;2023-05-29T08:55:22;96571.00;;;26.00
33267;BMP180;19638;49.080;11.896;2023-05-29T08:59:26;96572.00;;;26.10
33267;BMP180;19638;49.080;11.896;2023-05-29T09:03:35;96576.00;;;26.20
33267;BMP180;19638;49.080;11.896;2023-05-29T09:07:47;96571.00;;;26.20
33267;BMP180;19638;49.080;11.896;2023-05-29T09:11:51;96569.00;;;26.40
33267;BMP180;19638;49.080;11.896;2023-05-29T09:15:57;96576.00;;;26.70
33267;BMP180;19638;49.080;11.896;2023-05-29T09:20:01;96580.00;;;27.10
33267;BMP180;19638;49.080;11.896;2023-05-29T09:24:08;96576.00;;;26.90
33267;BMP180;19638;49.080;11.896;2023-05-29T09:28:13;96578.00;;;27.10
33267;BMP180;19638;49.080;11.896;2023-05-29T09:32:17;96571.00;;;27.80
33267;BMP180;19638;49.080;11.896;2023-05-29T09:36:21;96564.00;;;28.00
33267;BMP180;19638;49.080;11.896;2023-05-29T09:40:26;96574.00;;;28.70
33267;BMP180;19638;49.080;11.896;2023-05-29T09:44:32;96574.00;;;29.70
33267;BMP180;19638;49.080;11.896;2023-05-29T09:48:36;96571.00;;;29.70
33267;BMP180;19638;49.080;11.896;2023-05-29T09:52:47;96578.00;;;29.20
33267;BMP180;19638;49.080;11.896;2023-05-29T09:56:58;96578.00;;;28.70
33267;BMP180;19638;49.080;11.896;2023-05-29T10:01:03;96581.00;;;29.00
33267;BMP180;19638;49.080;11.896;2023-05-29T10:05:10;96585.00;;;30.10
33267;BMP180;19638;49.080;11.896;2023-05-29T10:09:21;96594.00;;;30.40
33267;BMP180;19638;49.080;11.896;2023-05-29T10:13:28;96592.00;;;30.40
33267;BMP180;19638;49.080;11.896;2023-05-29T10:17:35;96582.00;;;31.00
33267;BMP180;19638;49.080;11.896;2023-05-29T10:21:40;96578.00;;;31.40
33267;BMP180;19638;49.080;11.896;2023-05-29T10:25:44;96576.00;;;31.00
33267;BMP180;19638;49.080;11.896;2023-05-29T10:29:58;96569.00;;;30.60
33267;BMP180;19638;49.080;11.896;2023-05-29T10:34:12;96570.00;;;30.50
33267;BMP180;19638;49.080;11.896;2023-05-29T10:38:20;96565.00;;;30.30
33267;BMP180;19638;49.080;11.896;2023-05-29T10:42:44;96560.00;;;30.50
33267;BMP180;19638;49.080;11.896;2023-05-29T10:47:04;96560.00;;;31.00
33267;BMP180;19638;49.080;11.896;2023-05-29T10:51:08;96564.00;;;30.80
33267;BMP180;19638;49.080;11.896;2023-05-29T10:55:34;96574.00;;;30.30
33267;BMP180;19638;49.080;11.896;2023-05-29T10:59:39;96574.00;;;30.10
33267;BMP180;19638;49.080;11.896;2023-05-29T11:03:45;96558.00;;;29.80
33267;BMP180;19638;49.080;11.896;2023-05-29T11:07:58;96560.00;;;30.30
33267;BMP180;19638;49.080;11.896;2023-05-29T11:12:15;96566.00;;;30.10
33267;BMP180;19638;49.080;11.896;2023-05-29T11:16:37;96554.00;;;30.20
33267;BMP180;19638;49.080;11.896;2023-05-29T11:20:50;96555.00;;;30.50
33267;BMP180;19638;49.080;11.896;2023-05-29T11:24:59;96561.00;;;30.20
33267;BMP180;19638;49.080;11.896;2023-05-29T11:29:04;96562.00;;;30.00
33267;BMP180;19638;49.080;11.896;2023-05-29T11:33:09;96552.00;;;30.40
33267;BMP180;19638;49.080;11.896;2023-05-29T11:37:15;96556.00;;;31.00
33267;BMP180;19638;49.080;11.896;2023-05-29T11:41:19;96560.00;;;30.50
33267;BMP180;19638;49.080;11.896;2023-05-29T11:45:24;96559.00;;;30.00
33267;BMP180;19638;49.080;11.896;2023-05-29T11:49:28;96549.00;;;30.20
33267;BMP180;19638;49.080;11.896;2023-05-29T11:53:34;96552.00;;;30.80
33267;BMP180;19638;49.080;11.896;2023-05-29T11:57:42;96554.00;;;31.30
33267;BMP180;19638;49.080;11.896;2023-05-29T12:01:46;96556.00;;;31.20
33267;BMP180;19638;49.080;11.896;2023-05-29T12:05:52;96555.00;;;30.90
33267;BMP180;19638;49.080;11.896;2023-05-29T12:10:08;96548.00;;;31.10
33267;BMP180;19638;49.080;11.896;2023-05-29T12:14:12;96550.00;;;31.60
33267;BMP180;19638;49.080;11.896;2023-05-29T12:18:16;96548.00;;;31.40
33267;BMP180;19638;49.080;11.896;2023-05-29T12:22:32;96558.00;;;31.10
33267;BMP180;19638;49.080;11.896;2023-05-29T12:26:41;96555.00;;;30.60
33267;BMP180;19638;49.080;11.896;2023-05-29T12:30:49;96559.00;;;30.00
33267;BMP180;19638;49.080;11.896;2023-05-29T12:34:55;96556.00;;;29.80
33267;BMP180;19638;49.080;11.896;2023-05-29T12:39:06;96548.00;;;29.50
33267;BMP180;19638;49.080;11.896;2023-05-29T12:43:11;96556.00;;;28.70
33267;BMP180;19638;49.080;11.896;2023-05-29T12:47:25;96565.00;;;28.10
33267;BMP180;19638;49.080;11.896;2023-05-29T12:51:28;96552.00;;;27.60
33267;BMP180;19638;49.080;11.896;2023-05-29T12:55:34;96555.00;;;27.40
33267;BMP180;19638;49.080;11.896;2023-05-29T12:59:40;96540.00;;;27.30
33267;BMP180;19638;49.080;11.896;2023-05-29T13:03:43;96539.00;;;27.50
33267;BMP180;19638;49.080;11.896;2023-05-29T13:07:48;96542.00;;;27.70
33267;BMP180;19638;49.080;11.896;2023-05-29T13:11:54;96541.00;;;28.00
33267;BMP180;19638;49.080;11.896;2023-05-29T13:16:00;96540.00;;;28.40
33267;BMP180;19638;49.080;11.896;2023-05-29T13:20:04;96543.00;;;29.00
33267;BMP180;19638;49.080;11.896;2023-05-29T13:24:10;96541.00;;;29.40
33267;BMP180;19638;49.080;11.896;2023-05-29T13:28:13;96528.00;;;29.80
33267;BMP180;19638;49.080;11.896;2023-05-29T13:32:18;96517.00;;;30.20
33267;BMP180;19638;49.080;11.896;2023-05-29T13:36:24;96535.00;;;30.70
33267;BMP180;19638;49.080;11.896;2023-05-29T13:40:27;96533.00;;;30.40
33267;BMP180;19638;49.080;11.896;2023-05-29T13:44:32;96522.00;;;30.10
33267;BMP180;19638;49.080;11.896;2023-05-29T13:48:46;96523.00;;;30.70
33267;BMP180;19638;49.080;11.896;2023-05-29T13:52:51;96528.00;;;30.80
33267;BMP180;19638;49.080;11.896;2023-05-29T13:56:56;96519.00;;;30.70
33267;BMP180;19638;49.080;11.896;2023-05-29T14:01:05;96519.00;;;31.20
33267;BMP180;19638;49.080;11.896;2023-05-29T14:05:12;96506.00;;;31.50
33267;BMP180;19638;49.080;11.896;2023-05-29T14:09:16;96509.00;;;32.00
33267;BMP180;19638;49.080;11.896;2023-05-29T14:13:24;96512.00;;;31.40
33267;BMP180;19638;49.080;11.896;2023-05-29T14:17:31;96509.00;;;31.40
33267;BMP180;19638;49.080;11.896;2023-05-29T14:21:36;96509.00;;;31.20
33267;BMP180;19638;49.080;11.896;2023-05-29T14:25:47;96505.00;;;31.20
33267;BMP180;19638;49.080;11.896;2023-05-29T14:29:50;96511.00;;;31.30
33267;BMP180;19638;49.080;11.896;2023-05-29T14:33:56;96504.00;;;31.40
33267;BMP180;19638;49.080;11.896;2023-05-29T14:38:04;96496.00;;;32.10
33267;BMP180;19638;49.080;11.896;2023-05-29T14:42:07;96499.00;;;32.50
33267;BMP180;19638;49.080;11.896;2023-05-29T14:46:14;96492.00;;;32.90
33267;BMP180;19638;49.080;11.896;2023-05-29T14:50:20;96501.00;;;32.40
33267;BMP180;19638;49.080;11.896;2023-05-29T14:54:27;96495.00;;;32.10
33267;BMP180;19638;49.080;11.896;2023-05-29T14:58:32;96487.00;;;31.90
33267;BMP180;19638;49.080;11.896;2023-05-29T15:02:36;96487.00;;;32.20
33267;BMP180;19638;49.080;11.896;2023-05-29T15:06:41;96483.00;;;32.70
33267;BMP180;19638;49.080;11.896;2023-05-29T15:10:57;96480.00;;;33.20
33267;BMP180;19638;49.080;11.896;2023-05-29T15:15:02;96480.00;;;33.30
33267;BMP180;19638;49.080;11.896;2023-05-29T15:19:06;96477.00;;;33.20
33267;BMP180;19638;49.080;11.896;2023-05-29T15:23:09;96470.00;;;33.10
33267;BMP180;19638;49.080;11.896;2023-05-29T15:27:14;96473.00;;;32.80
33267;BMP180;19638;49.080;11.896;2023-05-29T15:31:19;96475.00;;;32.90
33267;BMP180;19638;49.080;11.896;2023-05-29T15:35:24;96473.00;;;33.10
33267;BMP180;19638;49.080;11.896;2023-05-29T15:39:28;96469.00;;;32.70
33267;BMP180;19638;49.080;11.896;2023-05-29T15:43:36;96462.00;;;32.10
33267;BMP180;19638;49.080;11.896;2023-05-29T15:47:40;96462.00;;;32.30
33267;BMP180;19638;49.080;11.896;2023-05-29T15:51:51;96461.00;;;32.30
33267;BMP180;19638;49.080;11.896;2023-05-29T15:55:57;96459.00;;;32.10
33267;BMP180;19638;49.080;11.896;2023-05-29T16:00:06;96453.00;;;31.80
33267;BMP180;19638;49.080;11.896;2023-05-29T16:04:13;96454.00;;;31.60
33267;BMP180;19638;49.080;11.896;2023-05-29T16:08:19;96460.00;;;31.60
33267;BMP180;19638;49.080;11.896;2023-05-29T16:12:25;96459.00;;;31.20
33267;BMP180;19638;49.080;11.896;2023-05-29T16:16:32;96461.00;;;30.80
33267;BMP180;19638;49.080;11.896;2023-05-29T16:20:36;96463.00;;;30.70
33267;BMP180;19638;49.080;11.896;2023-05-29T16:24:42;96459.00;;;30.70
33267;BMP180;19638;49.080;11.896;2023-05-29T16:28:46;96462.00;;;30.70
33267;BMP180;19638;49.080;11.896;2023-05-29T16:32:56;96449.00;;;30.70
33267;BMP180;19638;49.080;11.896;2023-05-29T16:36:59;96454.00;;;30.80
33267;BMP180;19638;49.080;11.896;2023-05-29T16:41:02;96455.00;;;30.70
33267;BMP180;19638;49.080;11.896;2023-05-29T16:45:06;96459.00;;;30.70
33267;BMP180;19638;49.080;11.896;2023-05-29T16:49:14;96460.00;;;30.50
33267;BMP180;19638;49.080;11.896;2023-05-29T16:53:18;96452.00;;;30.10
33267;BMP180;19638;49.080;11.896;2023-05-29T16:57:21;96456.00;;;30.10
33267;BMP180;19638;49.080;11.896;2023-05-29T17:01:24;96462.00;;;30.20
33267;BMP180;19638;49.080;11.896;2023-05-29T17:07:41;96458.00;;;30.40
33267;BMP180;19638;49.080;11.896;2023-05-29T17:11:44;96463.00;;;30.30
33267;BMP180;19638;49.080;11.896;2023-05-29T17:15:50;96463.00;;;30.20
33267;BMP180;19638;49.080;11.896;2023-05-29T17:19:54;96469.00;;;30.20
33267;BMP180;19638;49.080;11.896;2023-05-29T17:23:59;96471.00;;;30.20
33267;BMP180;19638;49.080;11.896;2023-05-29T17:28:02;96470.00;;;30.10
33267;BMP180;19638;49.080;11.896;2023-05-29T17:32:08;96483.00;;;30.10
33267;BMP180;19638;49.080;11.896;2023-05-29T17:36:13;96468.00;;;30.20
33267;BMP180;19638;49.080;11.896;2023-05-29T17:40:21;96470.00;;;29.80
33267;BMP180;19638;49.080;11.896;2023-05-29T17:44:25;96474.00;;;29.70
33267;BMP180;19638;49.080;11.896;2023-05-29T17:48:34;96468.00;;;29.40
33267;BMP180;19638;49.080;11.896;2023-05-29T17:52:38;96473.00;;;28.90
33267;BMP180;19638;49.080;11.896;2023-05-29T17:56:43;96469.00;;;28.10
33267;BMP180;19638;49.080;11.896;2023-05-29T18:00:47;96471.00;;;27.20
33267;BMP180;19638;49.080;11.896;2023-05-29T18:04:51;96475.00;;;26.40
33267;BMP180;19638;49.080;11.896;2023-05-29T18:08:58;96478.00;;;25.80
33267;BMP180;19638;49.080;11.896;2023-05-29T18:13:05;96479.00;;;25.20
33267;BMP180;19638;49.080;11.896;2023-05-29T18:17:11;96468.00;;;24.80
33267;BMP180;19638;49.080;11.896;2023-05-29T18:21:15;96473.00;;;24.40
33267;BMP180;19638;49.080;11.896;2023-05-29T18:25:18;96485.00;;;24.00
33267;BMP180;19638;49.080;11.896;2023-05-29T18:29:23;96477.00;;;23.70
33267;BMP180;19638;49.080;11.896;2023-05-29T18:33:26;96477.00;;;23.30
33267;BMP180;19638;49.080;11.896;2023-05-29T18:37:30;96476.00;;;23.00
33267;BMP180;19638;49.080;11.896;2023-05-29T18:41:34;96490.00;;;22.60
33267;BMP180;19638;49.080;11.896;2023-05-29T18:45:39;96483.00;;;22.20
33267;BMP180;19638;49.080;11.896;2023-05-29T18:49:42;96484.00;;;21.70
33267;BMP180;19638;49.080;11.896;2023-05-29T18:53:46;96480.00;;;21.40
33267;BMP180;19638;49.080;11.896;2023-05-29T18:57:49;96498.00;;;21.00
33267;BMP180;19638;49.080;11.896;2023-05-29T19:01:54;96493.00;;;20.70
33267;BMP180;19638;49.080;11.896;2023-05-29T19:06:02;96496.00;;;20.60
33267;BMP180;19638;49.080;11.896;2023-05-29T19:10:06;96494.00;;;20.40
33267;BMP180;19638;49.080;11.896;2023-05-29T19:14:12;96496.00;;;20.20
33267;BMP180;19638;49.080;11.896;2023-05-29T19:18:20;96498.00;;;19.90
33267;BMP180;19638;49.080;11.896;2023-05-29T19:22:28;96498.00;;;19.50
33267;BMP180;19638;49.080;11.896;2023-05-29T19:26:34;96498.00;;;19.20
33267;BMP180;19638;49.080;11.896;2023-05-29T19:30:38;96505.00;;;18.80
33267;BMP180;19638;49.080;11.896;2023-05-29T19:34:42;96516.00;;;18.50
33267;BMP180;19638;49.080;11.896;2023-05-29T19:38:46;96515.00;;;18.30
33267;BMP180;19638;49.080;11.896;2023-05-29T19:42:49;96523.00;;;18.10
33267;BMP180;19638;49.080;11.896;2023-05-29T19:46:57;96534.00;;;17.90
33267;BMP180;19638;49.080;11.896;2023-05-29T19:51:04;96532.00;;;17.70
33267;BMP180;19638;49.080;11.896;2023-05-29T19:55:09;96538.00;;;17.40
33267;BMP180;19638;49.080;11.896;2023-05-29T19:59:13;96549.00;;;17.20
33267;BMP180;19638;49.080;11.896;2023-05-29T20:03:19;96551.00;;;17.10
33267;BMP180;19638;49.080;11.896;2023-05-29T20:07:28;96546.00;;;16.90
33267;BMP180;19638;49.080;11.896;2023-05-29T20:11:34;96559.00;;;16.70
33267;BMP180;19638;49.080;11.896;2023-05-29T20:15:42;96565.00;;;16.80
33267;BMP180;19638;49.080;11.896;2023-05-29T20:19:47;96571.00;;;17.20
33267;BMP180;19638;49.080;11.896;2023-05-29T20:23:53;96568.00;;;17.60
33267;BMP180;19638;49.080;11.896;2023-05-29T20:27:58;96571.00;;;17.80
33267;BMP180;19638;49.080;11.896;2023-05-29T20:32:01;96577.00;;;17.70
33267;BMP180;19638;49.080;11.896;2023-05-29T20:36:06;96575.00;;;17.70
33267;BMP180;19638;49.080;11.896;2023-05-29T20:40:14;96574.00;;;17.70
33267;BMP180;19638;49.080;11.896;2023-05-29T20:44:18;96578.00;;;17.70
33267;BMP180;19638;49.080;11.896;2023-05-29T20:48:31;96585.00;;;17.60
33267;BMP180;19638;49.080;11.896;2023-05-29T20:52:35;96574.00;;;17.50
33267;BMP180;19638;49.080;11.896;2023-05-29T20:56:40;96585.00;;;17.50
33267;BMP180;19638;49.080;11.896;2023-05-29T21:00:45;96590.00;;;17.40
33267;BMP180;19638;49.080;11.896;2023-05-29T21:04:52;96583.00;;;17.40
33267;BMP180;19638;49.080;11.896;2023-05-29T21:08:59;96589.00;;;17.30
33267;BMP180;19638;49.080;11.896;2023-05-29T21:13:08;96590.00;;;17.30
33267;BMP180;19638;49.080;11.896;2023-05-29T21:17:23;96592.00;;;17.30
33267;BMP180;19638;49.080;11.896;2023-05-29T21:21:33;96594.00;;;17.30
33267;BMP180;19638;49.080;11.896;2023-05-29T21:25:42;96594.00;;;17.20
33267;BMP180;19638;49.080;11.896;2023-05-29T21:29:48;96596.00;;;17.20
33267;BMP180;19638;49.080;11.896;2023-05-29T21:33:57;96591.00;;;17.10
33267;BMP180;19638;49.080;11.896;2023-05-29T21:38:02;96597.00;;;17.00
33267;BMP180;19638;49.080;11.896;2023-05-29T21:42:09;96593.00;;;16.90
33267;BMP180;19638;49.080;11.896;2023-05-29T21:46:17;96589.00;;;16.80
33267;BMP180;19638;49.080;11.896;2023-05-29T21:50:21;96594.00;;;16.80
33267;BMP180;19638;49.080;11.896;2023-05-29T21:54:27;96603.00;;;16.70
33267;BMP180;19638;49.080;11.896;2023-05-29T21:58:31;96599.00;;;16.60
33267;BMP180;19638;49.080;11.896;2023-05-29T22:02:37;96601.00;;;16.60
33267;BMP180;19638;49.080;11.896;2023-05-29T22:06:41;96605.00;;;16.50
33267;BMP180;19638;49.080;11.896;2023-05-29T22:10:49;96610.00;;;16.40
33267;BMP180;19638;49.080;11.896;2023-05-29T22:14:53;96613.00;;;16.30
33267;BMP180;19638;49.080;11.896;2023-05-29T22:19:00;96612.00;;;16.30
33267;BMP180;19638;49.080;11.896;2023-05-29T22:23:08;96613.00;;;16.20
33267;BMP180;19638;49.080;11.896;2023-05-29T22:27:18;96622.00;;;16.20
33267;BMP180;19638;49.080;11.896;2023-05-29T22:31:23;96618.00;;;16.20
33267;BMP180;19638;49.080;11.896;2023-05-29T22:35:30;96610.00;;;16.20
33267;BMP180;19638;49.080;11.896;2023-05-29T22:39:37;96614.00;;;16.30
33267;BMP180;19638;49.080;11.896;2023-05-29T22:43:44;96621.00;;;16.30
33267;BMP180;19638;49.080;11.896;2023-05-29T22:47:49;96621.00;;;16.40
33267;BMP180;19638;49.080;11.896;2023-05-29T22:51:54;96619.00;;;16.30
33267;BMP180;19638;49.080;11.896;2023-05-29T22:56:01;96626.00;;;16.30
33267;BMP180;19638;49.080;11.896;2023-05-29T23:00:06;96626.00;;;16.30
33267;BMP180;19638;49.080;11.896;2023-05-29T23:04:15;96627.00;;;16.20
33267;BMP180;19638;49.080;11.896;2023-05-29T23:08:25;96620.00;;;16.10
33267;BMP180;19638;49.080;11.896;2023-05-29T23:12:29;96623.00;;;16.10
33267;BMP180;19638;49.080;11.896;2023-05-29T23:16:36;96613.00;;;16.10
33267;BMP180;19638;49.080;11.896;2023-05-29T23:20:39;96626.00;;;16.20
33267;BMP180;19638;49.080;11.896;2023-05-29T23:24:48;96624.00;;;16.20